Airport View

Enter AWOS ICAO identifier for current METAR.

ex. KFNL

KFME 181148Z AUTO 14005KT 10SM BKN080 BKN120 M02/M09 A3058 RMK AO1

18 Jan 2020 12:04

Frequency: 123.925

Other Area AWOS: KBWI - KCGS - KDMH - KNAK

TAF KBWI 181136Z 1812/1918 12004KT P6SM SCT080 FM181300 14004KT 3SM -SN OVC020 FM181400 16007KT P6SM OVC040 FM181700 17009KT 4SM -SNPL OVC030 FM181900 18010G17KT 3SM -PLRA OVC025 FM182100 18011KT 2SM -RA OVC015 FM190000 20010KT 4SM BR BKN015 FM190600 24011KT 6SM BR BKN035 FM191300 29013G23KT P6SM SCT050